Windhoek — 3FWJ3 — position and weather

sailwx.info

Track history (hours):
 
Tides and Currents Weather Stations Pressure Air Temp Water Temp Dewpoint Dewpoint Depression Visibility Wind Speed Wind Dir Waves Ship Positions

Windhoek

Last reported at 2016-Jul-24 12:33 UTC. Time now 2016-Jul-24 12:50 UTC.
Position N 50°39' W 001°00'.

Length 172 m; draft 6.6 m.

Type: Ship (hazmat cat C). MMSI: 370431000.

Date/timePositionNaut miles runAvg speedWind from/ knotsBaromVisibWave heightAir tempDewpointWater temp
2016-Jul-24 12:33N 50°39' W 001°00'0 0.0
2016-Jul-24 11:33N 50°39' W 001°00'0 0.0
2016-Jul-24 10:33N 50°39' W 001°00'0 0.0
2016-Jul-24 09:33N 50°39' W 001°00'0 0.0
2016-Jul-24 08:33N 50°39' W 001°00'0 0.0
2016-Jul-24 07:33N 50°39' W 001°01'0 0.2
2016-Jul-24 06:32N 50°39' W 001°01'0 0.0
2016-Jul-24 05:32N 50°39' W 001°01'0 0.0
2016-Jul-24 04:32N 50°39' W 001°01'0 0.0
2016-Jul-24 03:32N 50°39' W 001°01'0 0.0
2016-Jul-24 02:32N 50°39' W 001°01'0 0.2
2016-Jul-24 01:32N 50°39' W 001°01'0 0.0
2016-Jul-24 00:32N 50°39' W 001°00'0 0.0
2016-Jul-23 23:32N 50°39' W 001°00'0 0.0
2016-Jul-23 22:32N 50°39' W 001°00'0 0.0
2016-Jul-23 21:32N 50°39' W 001°00'0 0.0
2016-Jul-23 20:32N 50°39' W 001°00'0 0.0
2016-Jul-23 19:32N 50°39' W 001°00'3 3.5
2016-Jul-23 18:34N 50°37' W 000°56'1514.5
2016-Jul-23 17:33N 50°31' W 000°35'1515.2
2016-Jul-23 16:33N 50°30' W 000°11'1716.9
2016-Jul-23 15:34N 50°34' E 000°15'1616.1
2016-Jul-23 14:33N 50°39' E 000°39'1515.2
2016-Jul-23 13:33N 50°47' E 000°60'1414.5
2016-Jul-23 12:33N 50°57' E 001°16'1616.2
2016-Jul-23 11:33N 51°07' E 001°35'1818.4
2016-Jul-23 10:34N 51°22' E 001°53'1515.2
2016-Jul-23 09:33N 51°20' E 002°17'1717.1
2016-Jul-23 08:33N 51°22' E 002°45'1615.9
2016-Jul-23 07:34N 51°24' E 003°10'1616.2
2016-Jul-23 06:33N 51°26' E 003°36'2311.6
2016-Jul-23 04:34N 51°23' E 004°13'6 5.9
2016-Jul-23 03:32N 51°18' E 004°16'0 0.0
2016-Jul-23 02:26N 51°18' E 004°16'0 0.0
2016-Jul-23 01:32N 51°18' E 004°16'0 0.0
2016-Jul-23 00:32N 51°18' E 004°16'0 0.0
2016-Jul-22 23:32N 51°18' E 004°16'0 0.0
2016-Jul-22 22:32N 51°18' E 004°16'0 0.0
2016-Jul-22 21:32N 51°18' E 004°16'0 0.0
2016-Jul-22 20:32N 51°18' E 004°16'0 0.0
2016-Jul-22 19:29N 51°18' E 004°16'0 0.0
2016-Jul-22 18:32N 51°18' E 004°16'0 0.0
2016-Jul-22 17:32N 51°18' E 004°16'0 0.0
2016-Jul-22 16:29N 51°18' E 004°16'0 0.0
2016-Jul-22 15:29N 51°18' E 004°16'0 0.0
2016-Jul-22 14:29N 51°18' E 004°16'0 0.0
2016-Jul-22 13:32N 51°18' E 004°16'4 4.5
2016-Jul-22 12:34N 51°22' E 004°13'1010.3
2016-Jul-22 11:33N 51°23' E 003°57'1212.0
2016-Jul-22 10:33N 51°26' E 003°38'1111.2
2016-Jul-22 09:33N 51°24' E 003°21'1615.7
2016-Jul-22 08:33N 51°22' E 002°56'1212.3
2016-Jul-22 07:33N 51°22' E 002°36'2813.9
2016-Jul-22 05:33N 51°10' E 001°56'1514.8
2016-Jul-22 04:33N 51°02' E 001°37'1615.2
2016-Jul-22 03:29N 50°48' E 001°23'1714.9
2016-Jul-22 02:22N 50°34' E 001°08'2614.4
2016-Jul-22 00:33N 50°25' E 000°30'1515.3
2016-Jul-21 23:33N 50°21' E 000°07'1616.2
2016-Jul-21 22:33N 50°15' W 000°18'1717.3
2016-Jul-21 21:33N 50°10' W 000°43'1818.2
2016-Jul-21 20:33N 50°06' W 001°11'1818.4
2016-Jul-21 19:33N 50°01' W 001°39'2118.0
2016-Jul-21 18:23N 49°56' W 002°11'1416.4
2016-Jul-21 17:33N 49°52' W 002°31'1716.8
2016-Jul-21 16:33N 49°48' W 002°56'1616.2
2016-Jul-21 15:33N 49°46' W 003°21'1616.1
2016-Jul-21 14:33N 49°46' W 003°46'1615.9
2016-Jul-21 13:32N 49°46' W 004°11'1715.9
2016-Jul-21 12:30N 49°46' W 004°36'5713.4
2016-Jul-21 08:15N 50°05' W 005°60'1217.6
2016-Jul-21 07:33N 50°17' W 006°00'8617.2
2016-Jul-21 02:33N 51°20' W 007°34'1616.6
2016-Jul-21 01:34N 51°31' W 007°53'1616.1
2016-Jul-21 00:33N 51°43' W 008°10'9 9.2
2016-Jul-20 23:34N 51°51' W 008°18'1 1.1
2016-Jul-20 22:31N 51°50' W 008°20'0 0.0
2016-Jul-20 21:31N 51°50' W 008°20'0 0.0
2016-Jul-20 20:31N 51°50' W 008°20'0 0.0
2016-Jul-20 19:31N 51°50' W 008°20'0 0.0
2016-Jul-20 18:31N 51°50' W 008°20'0 0.0
2016-Jul-20 17:31N 51°50' W 008°20'0 0.0
2016-Jul-20 16:31N 51°50' W 008°20'0 0.0
2016-Jul-20 15:31N 51°50' W 008°20'0 0.0
2016-Jul-20 14:31N 51°50' W 008°20'0 0.0
2016-Jul-20 13:31N 51°50' W 008°20'3 2.7
2016-Jul-20 12:34N 51°51' W 008°16'7 7.5
2016-Jul-20 11:34N 51°44' W 008°10'1514.6
2016-Jul-20 10:33N 51°45' W 007°46'1717.1
2016-Jul-20 09:33N 51°47' W 007°19'1616.4
2016-Jul-20 08:33N 51°48' W 006°52'1615.6
2016-Jul-20 07:32N 51°53' W 006°27'4613.9
2016-Jul-20 04:13N 52°29' W 005°41'3817.6
2016-Jul-20 02:04N 53°07' W 005°31'26 1.5
2016-Jul-19 08:18N 53°32' W 005°43'1418.3
2016-Jul-19 07:33N 53°44' W 005°33'5217.4
2016-Jul-19 04:33N 54°35' W 005°11'1818.2
2016-Jul-19 03:33N 54°51' W 005°22'1615.6
2016-Jul-19 02:33N 55°07' W 005°18'23 0.7
2016-Jul-17 17:34N 55°27' W 004°58'1615.9
2016-Jul-17 16:33N 55°13' W 005°13'1615.9
2016-Jul-17 15:33N 54°58' W 005°22'1616.3
2016-Jul-17 14:34N 54°45' W 005°38'1110.6
2016-Jul-17 13:33N 54°38' W 005°53'0 0.3
2016-Jul-17 12:33N 54°38' W 005°53'0 0.0
2016-Jul-17 11:33N 54°38' W 005°53'0 0.0
2016-Jul-17 10:33N 54°38' W 005°53'0 0.0
2016-Jul-17 09:33N 54°38' W 005°53'0 0.0
2016-Jul-17 08:33N 54°38' W 005°53'0 0.0
2016-Jul-17 07:33N 54°38' W 005°53'3 2.7
2016-Jul-17 06:33N 54°40' W 005°50'18 9.2
2016-Jul-17 04:34N 54°38' W 005°18'1615.6
2016-Jul-17 03:33N 54°24' W 005°05'1515.0
2016-Jul-17 02:33N 54°10' W 004°60'1514.9
2016-Jul-17 01:32N 53°56' W 004°48'1818.1
2016-Jul-17 00:33N 53°47' W 004°22'1818.4
2016-Jul-16 23:33N 53°39' W 003°54'1817.6
2016-Jul-16 22:33N 53°33' W 003°26'1110.7
2016-Jul-16 21:33N 53°32' W 003°08'6 6.2
2016-Jul-16 20:32N 53°27' W 003°01'1 0.6
2016-Jul-16 19:32N 53°28' W 003°02'0 0.3
2016-Jul-16 18:26N 53°28' W 003°01'0 0.0
2016-Jul-16 17:33N 53°28' W 003°01'0 0.0
2016-Jul-16 16:33N 53°28' W 003°01'0 0.0
2016-Jul-16 15:33N 53°28' W 003°01'0 0.0
2016-Jul-16 14:33N 53°28' W 003°01'0 0.0
2016-Jul-16 13:33N 53°28' W 003°01'0 0.0
2016-Jul-16 12:32N 53°28' W 003°01'0 0.0
2016-Jul-16 11:33N 53°28' W 003°01'0 0.0
2016-Jul-16 10:33N 53°28' W 003°01'0 0.0
2016-Jul-16 09:33N 53°28' W 003°01'0 0.0
2016-Jul-16 08:33N 53°28' W 003°01'0 0.0
2016-Jul-16 07:33N 53°28' W 003°01'0 0.0
2016-Jul-16 06:33N 53°28' W 003°01'0 0.0
2016-Jul-16 04:33N 53°28' W 003°01'0 0.0
2016-Jul-16 03:33N 53°28' W 003°01'0 0.0
2016-Jul-16 02:33N 53°28' W 003°01'0 0.0
2016-Jul-16 01:33N 53°28' W 003°01'0 0.0
2016-Jul-16 00:33N 53°28' W 003°01'0 0.0
2016-Jul-15 23:33N 53°28' W 003°01'0 0.0
2016-Jul-15 22:32N 53°28' W 003°01'0 0.0
2016-Jul-15 21:33N 53°28' W 003°01'0 0.0
2016-Jul-15 20:33N 53°28' W 003°01'0 0.0
2016-Jul-15 19:33N 53°28' W 003°01'0 0.0
2016-Jul-15 18:33N 53°28' W 003°01'1 0.6
2016-Jul-15 17:33N 53°27' W 003°01'1 0.5
2016-Jul-15 16:33N 53°27' W 003°02'8 7.9
2016-Jul-15 15:33N 53°31' W 003°13'8 7.5
2016-Jul-15 14:33N 53°32' W 003°26'2 2.2
2016-Jul-15 13:31N 53°34' W 003°24'0 0.1
2016-Jul-15 12:28N 53°34' W 003°24'0 0.0
2016-Jul-15 11:28N 53°34' W 003°24'0 0.0
2016-Jul-15 10:31N 53°34' W 003°24'0 0.0
2016-Jul-15 09:31N 53°34' W 003°24'0 0.0
2016-Jul-15 08:31N 53°34' W 003°24'3 2.6
2016-Jul-15 07:33N 53°33' W 003°20'1 1.3
2016-Jul-15 06:33N 53°32' W 003°18'1 0.7
2016-Jul-15 05:33N 53°32' W 003°19'4 4.0
2016-Jul-15 04:33N 53°32' W 003°26'2 2.1
2016-Jul-15 03:32N 53°34' W 003°24'0 0.0
2016-Jul-15 02:32N 53°34' W 003°24'0 0.0
2016-Jul-15 01:32N 53°34' W 003°24'0 0.0
2016-Jul-15 00:23N 53°34' W 003°24'0 0.0
2016-Jul-14 23:32N 53°34' W 003°24'0 0.2
2016-Jul-14 22:33N 53°34' W 003°24'1211.7
2016-Jul-14 21:34N 53°31' W 003°43'1515.0
2016-Jul-14 20:33N 53°31' W 004°08'1614.9
2016-Jul-14 19:31N 53°29' W 004°34'  
Track history (hours):
 
Tides and Currents Weather Stations Pressure Air Temp Water Temp Dewpoint Dewpoint Depression Visibility Wind Speed Wind Dir Waves Ship Positions

Windhoek

Last reported at 2016-Jul-24 12:33 UTC. Time now 2016-Jul-24 12:50 UTC.
Position N 50°39' W 001°00'.

Length 172 m; draft 6.6 m.

Type: Ship (hazmat cat C). MMSI: 370431000.

Date/timePositionNaut miles runAvg speedWind from/ knotsBaromVisibWave heightAir tempDewpointWater temp
2016-Jul-24 12:33N 50°39' W 001°00'0 0.0
2016-Jul-24 11:33N 50°39' W 001°00'0 0.0
2016-Jul-24 10:33N 50°39' W 001°00'0 0.0
2016-Jul-24 09:33N 50°39' W 001°00'0 0.0
2016-Jul-24 08:33N 50°39' W 001°00'0 0.0
2016-Jul-24 07:33N 50°39' W 001°01'0 0.2
2016-Jul-24 06:32N 50°39' W 001°01'0 0.0
2016-Jul-24 05:32N 50°39' W 001°01'0 0.0
2016-Jul-24 04:32N 50°39' W 001°01'0 0.0
2016-Jul-24 03:32N 50°39' W 001°01'0 0.0
2016-Jul-24 02:32N 50°39' W 001°01'0 0.2
2016-Jul-24 01:32N 50°39' W 001°01'0 0.0
2016-Jul-24 00:32N 50°39' W 001°00'0 0.0
2016-Jul-23 23:32N 50°39' W 001°00'0 0.0
2016-Jul-23 22:32N 50°39' W 001°00'0 0.0
2016-Jul-23 21:32N 50°39' W 001°00'0 0.0
2016-Jul-23 20:32N 50°39' W 001°00'0 0.0
2016-Jul-23 19:32N 50°39' W 001°00'3 3.5
2016-Jul-23 18:34N 50°37' W 000°56'1514.5
2016-Jul-23 17:33N 50°31' W 000°35'1515.2
2016-Jul-23 16:33N 50°30' W 000°11'1716.9
2016-Jul-23 15:34N 50°34' E 000°15'1616.1
2016-Jul-23 14:33N 50°39' E 000°39'1515.2
2016-Jul-23 13:33N 50°47' E 000°60'1414.5
2016-Jul-23 12:33N 50°57' E 001°16'1616.2
2016-Jul-23 11:33N 51°07' E 001°35'1818.4
2016-Jul-23 10:34N 51°22' E 001°53'1515.2
2016-Jul-23 09:33N 51°20' E 002°17'1717.1
2016-Jul-23 08:33N 51°22' E 002°45'1615.9
2016-Jul-23 07:34N 51°24' E 003°10'1616.2
2016-Jul-23 06:33N 51°26' E 003°36'2311.6
2016-Jul-23 04:34N 51°23' E 004°13'6 5.9
2016-Jul-23 03:32N 51°18' E 004°16'0 0.0
2016-Jul-23 02:26N 51°18' E 004°16'0 0.0
2016-Jul-23 01:32N 51°18' E 004°16'0 0.0
2016-Jul-23 00:32N 51°18' E 004°16'0 0.0
2016-Jul-22 23:32N 51°18' E 004°16'0 0.0
2016-Jul-22 22:32N 51°18' E 004°16'0 0.0
2016-Jul-22 21:32N 51°18' E 004°16'0 0.0
2016-Jul-22 20:32N 51°18' E 004°16'0 0.0
2016-Jul-22 19:29N 51°18' E 004°16'0 0.0
2016-Jul-22 18:32N 51°18' E 004°16'0 0.0
2016-Jul-22 17:32N 51°18' E 004°16'0 0.0
2016-Jul-22 16:29N 51°18' E 004°16'0 0.0
2016-Jul-22 15:29N 51°18' E 004°16'0 0.0
2016-Jul-22 14:29N 51°18' E 004°16'0 0.0
2016-Jul-22 13:32N 51°18' E 004°16'4 4.5
2016-Jul-22 12:34N 51°22' E 004°13'1010.3
2016-Jul-22 11:33N 51°23' E 003°57'1212.0
2016-Jul-22 10:33N 51°26' E 003°38'1111.2
2016-Jul-22 09:33N 51°24' E 003°21'1615.7
2016-Jul-22 08:33N 51°22' E 002°56'1212.3
2016-Jul-22 07:33N 51°22' E 002°36'2813.9
2016-Jul-22 05:33N 51°10' E 001°56'1514.8
2016-Jul-22 04:33N 51°02' E 001°37'1615.2
2016-Jul-22 03:29N 50°48' E 001°23'1714.9
2016-Jul-22 02:22N 50°34' E 001°08'2614.4
2016-Jul-22 00:33N 50°25' E 000°30'1515.3
2016-Jul-21 23:33N 50°21' E 000°07'1616.2
2016-Jul-21 22:33N 50°15' W 000°18'1717.3
2016-Jul-21 21:33N 50°10' W 000°43'1818.2
2016-Jul-21 20:33N 50°06' W 001°11'1818.4
2016-Jul-21 19:33N 50°01' W 001°39'2118.0
2016-Jul-21 18:23N 49°56' W 002°11'1416.4
2016-Jul-21 17:33N 49°52' W 002°31'1716.8
2016-Jul-21 16:33N 49°48' W 002°56'1616.2
2016-Jul-21 15:33N 49°46' W 003°21'1616.1
2016-Jul-21 14:33N 49°46' W 003°46'1615.9
2016-Jul-21 13:32N 49°46' W 004°11'1715.9
2016-Jul-21 12:30N 49°46' W 004°36'5713.4
2016-Jul-21 08:15N 50°05' W 005°60'1217.6
2016-Jul-21 07:33N 50°17' W 006°00'8617.2
2016-Jul-21 02:33N 51°20' W 007°34'1616.6
2016-Jul-21 01:34N 51°31' W 007°53'1616.1
2016-Jul-21 00:33N 51°43' W 008°10'9 9.2
2016-Jul-20 23:34N 51°51' W 008°18'1 1.1
2016-Jul-20 22:31N 51°50' W 008°20'0 0.0
2016-Jul-20 21:31N 51°50' W 008°20'0 0.0
2016-Jul-20 20:31N 51°50' W 008°20'0 0.0
2016-Jul-20 19:31N 51°50' W 008°20'0 0.0
2016-Jul-20 18:31N 51°50' W 008°20'0 0.0
2016-Jul-20 17:31N 51°50' W 008°20'0 0.0
2016-Jul-20 16:31N 51°50' W 008°20'0 0.0
2016-Jul-20 15:31N 51°50' W 008°20'0 0.0
2016-Jul-20 14:31N 51°50' W 008°20'0 0.0
2016-Jul-20 13:31N 51°50' W 008°20'3 2.7
2016-Jul-20 12:34N 51°51' W 008°16'7 7.5
2016-Jul-20 11:34N 51°44' W 008°10'1514.6
2016-Jul-20 10:33N 51°45' W 007°46'1717.1
2016-Jul-20 09:33N 51°47' W 007°19'1616.4
2016-Jul-20 08:33N 51°48' W 006°52'1615.6
2016-Jul-20 07:32N 51°53' W 006°27'4613.9
2016-Jul-20 04:13N 52°29' W 005°41'3817.6
2016-Jul-20 02:04N 53°07' W 005°31'26 1.5
2016-Jul-19 08:18N 53°32' W 005°43'1418.3
2016-Jul-19 07:33N 53°44' W 005°33'5217.4
2016-Jul-19 04:33N 54°35' W 005°11'1818.2
2016-Jul-19 03:33N 54°51' W 005°22'1615.6
2016-Jul-19 02:33N 55°07' W 005°18'23 0.7
2016-Jul-17 17:34N 55°27' W 004°58'1615.9
2016-Jul-17 16:33N 55°13' W 005°13'1615.9
2016-Jul-17 15:33N 54°58' W 005°22'1616.3
2016-Jul-17 14:34N 54°45' W 005°38'1110.6
2016-Jul-17 13:33N 54°38' W 005°53'0 0.3
2016-Jul-17 12:33N 54°38' W 005°53'0 0.0
2016-Jul-17 11:33N 54°38' W 005°53'0 0.0
2016-Jul-17 10:33N 54°38' W 005°53'0 0.0
2016-Jul-17 09:33N 54°38' W 005°53'0 0.0
2016-Jul-17 08:33N 54°38' W 005°53'0 0.0
2016-Jul-17 07:33N 54°38' W 005°53'3 2.7
2016-Jul-17 06:33N 54°40' W 005°50'18 9.2
2016-Jul-17 04:34N 54°38' W 005°18'1615.6
2016-Jul-17 03:33N 54°24' W 005°05'1515.0
2016-Jul-17 02:33N 54°10' W 004°60'1514.9
2016-Jul-17 01:32N 53°56' W 004°48'1818.1
2016-Jul-17 00:33N 53°47' W 004°22'1818.4
2016-Jul-16 23:33N 53°39' W 003°54'1817.6
2016-Jul-16 22:33N 53°33' W 003°26'1110.7
2016-Jul-16 21:33N 53°32' W 003°08'6 6.2
2016-Jul-16 20:32N 53°27' W 003°01'1 0.6
2016-Jul-16 19:32N 53°28' W 003°02'0 0.3
2016-Jul-16 18:26N 53°28' W 003°01'0 0.0
2016-Jul-16 17:33N 53°28' W 003°01'0 0.0
2016-Jul-16 16:33N 53°28' W 003°01'0 0.0
2016-Jul-16 15:33N 53°28' W 003°01'0 0.0
2016-Jul-16 14:33N 53°28' W 003°01'0 0.0
2016-Jul-16 13:33N 53°28' W 003°01'0 0.0
2016-Jul-16 12:32N 53°28' W 003°01'0 0.0
2016-Jul-16 11:33N 53°28' W 003°01'0 0.0
2016-Jul-16 10:33N 53°28' W 003°01'0 0.0
2016-Jul-16 09:33N 53°28' W 003°01'0 0.0
2016-Jul-16 08:33N 53°28' W 003°01'0 0.0
2016-Jul-16 07:33N 53°28' W 003°01'0 0.0
2016-Jul-16 06:33N 53°28' W 003°01'0 0.0
2016-Jul-16 04:33N 53°28' W 003°01'0 0.0
2016-Jul-16 03:33N 53°28' W 003°01'0 0.0
2016-Jul-16 02:33N 53°28' W 003°01'0 0.0
2016-Jul-16 01:33N 53°28' W 003°01'0 0.0
2016-Jul-16 00:33N 53°28' W 003°01'0 0.0
2016-Jul-15 23:33N 53°28' W 003°01'0 0.0
2016-Jul-15 22:32N 53°28' W 003°01'0 0.0
2016-Jul-15 21:33N 53°28' W 003°01'0 0.0
2016-Jul-15 20:33N 53°28' W 003°01'0 0.0
2016-Jul-15 19:33N 53°28' W 003°01'0 0.0
2016-Jul-15 18:33N 53°28' W 003°01'1 0.6
2016-Jul-15 17:33N 53°27' W 003°01'1 0.5
2016-Jul-15 16:33N 53°27' W 003°02'8 7.9
2016-Jul-15 15:33N 53°31' W 003°13'8 7.5
2016-Jul-15 14:33N 53°32' W 003°26'2 2.2
2016-Jul-15 13:31N 53°34' W 003°24'0 0.1
2016-Jul-15 12:28N 53°34' W 003°24'0 0.0
2016-Jul-15 11:28N 53°34' W 003°24'0 0.0
2016-Jul-15 10:31N 53°34' W 003°24'0 0.0
2016-Jul-15 09:31N 53°34' W 003°24'0 0.0
2016-Jul-15 08:31N 53°34' W 003°24'3 2.6
2016-Jul-15 07:33N 53°33' W 003°20'1 1.3
2016-Jul-15 06:33N 53°32' W 003°18'1 0.7
2016-Jul-15 05:33N 53°32' W 003°19'4 4.0
2016-Jul-15 04:33N 53°32' W 003°26'2 2.1
2016-Jul-15 03:32N 53°34' W 003°24'0 0.0
2016-Jul-15 02:32N 53°34' W 003°24'0 0.0
2016-Jul-15 01:32N 53°34' W 003°24'0 0.0
2016-Jul-15 00:23N 53°34' W 003°24'0 0.0
2016-Jul-14 23:32N 53°34' W 003°24'0 0.2
2016-Jul-14 22:33N 53°34' W 003°24'1211.7
2016-Jul-14 21:34N 53°31' W 003°43'1515.0
2016-Jul-14 20:33N 53°31' W 004°08'1614.9
2016-Jul-14 19:31N 53°29' W 004°34'  

Dump ship's entire track history